sensor_id;sensor_type;location;lat;lon;timestamp;P1;durP1;ratioP1;P2;durP2;ratioP2
2029;SDS011;1020;48.854;8.830;2022-08-21T00:01:19;2.40;;;1.93;;
2029;SDS011;1020;48.854;8.830;2022-08-21T00:03:51;3.10;;;2.10;;
2029;SDS011;1020;48.854;8.830;2022-08-21T00:06:18;4.13;;;3.07;;
2029;SDS011;1020;48.854;8.830;2022-08-21T00:08:45;3.13;;;2.83;;
2029;SDS011;1020;48.854;8.830;2022-08-21T00:11:12;3.03;;;2.70;;
2029;SDS011;1020;48.854;8.830;2022-08-21T00:13:39;3.53;;;2.60;;
2029;SDS011;1020;48.854;8.830;2022-08-21T00:16:07;2.33;;;2.13;;
2029;SDS011;1020;48.854;8.830;2022-08-21T00:18:34;3.10;;;2.30;;
2029;SDS011;1020;48.854;8.830;2022-08-21T00:21:02;3.97;;;3.13;;
2029;SDS011;1020;48.854;8.830;2022-08-21T00:23:30;2.57;;;1.93;;
2029;SDS011;1020;48.854;8.830;2022-08-21T00:25:58;3.13;;;2.60;;
2029;SDS011;1020;48.854;8.830;2022-08-21T00:28:25;2.80;;;2.20;;
2029;SDS011;1020;48.854;8.830;2022-08-21T00:30:52;2.67;;;2.20;;
2029;SDS011;1020;48.854;8.830;2022-08-21T00:33:18;3.53;;;2.13;;
2029;SDS011;1020;48.854;8.830;2022-08-21T00:35:45;3.70;;;2.40;;
2029;SDS011;1020;48.854;8.830;2022-08-21T00:38:13;3.80;;;2.73;;
2029;SDS011;1020;48.854;8.830;2022-08-21T00:40:42;2.00;;;1.90;;
2029;SDS011;1020;48.854;8.830;2022-08-21T00:43:11;4.10;;;2.30;;
2029;SDS011;1020;48.854;8.830;2022-08-21T00:45:40;3.03;;;2.77;;
2029;SDS011;1020;48.854;8.830;2022-08-21T00:48:07;2.87;;;2.67;;
2029;SDS011;1020;48.854;8.830;2022-08-21T00:50:35;3.07;;;2.80;;
2029;SDS011;1020;48.854;8.830;2022-08-21T00:53:07;2.50;;;2.30;;
2029;SDS011;1020;48.854;8.830;2022-08-21T00:55:37;3.40;;;2.40;;
2029;SDS011;1020;48.854;8.830;2022-08-21T00:58:05;2.40;;;2.20;;
2029;SDS011;1020;48.854;8.830;2022-08-21T01:00:35;2.70;;;2.43;;
2029;SDS011;1020;48.854;8.830;2022-08-21T01:03:06;3.17;;;2.60;;
2029;SDS011;1020;48.854;8.830;2022-08-21T01:05:35;2.60;;;2.40;;
2029;SDS011;1020;48.854;8.830;2022-08-21T01:08:02;2.70;;;2.50;;
2029;SDS011;1020;48.854;8.830;2022-08-21T01:10:30;2.30;;;2.10;;
2029;SDS011;1020;48.854;8.830;2022-08-21T01:12:58;2.90;;;2.67;;
2029;SDS011;1020;48.854;8.830;2022-08-21T01:15:26;2.40;;;2.20;;
2029;SDS011;1020;48.854;8.830;2022-08-21T01:17:56;2.70;;;2.50;;
2029;SDS011;1020;48.854;8.830;2022-08-21T01:20:23;2.90;;;2.57;;
2029;SDS011;1020;48.854;8.830;2022-08-21T01:22:52;2.87;;;2.67;;
2029;SDS011;1020;48.854;8.830;2022-08-21T01:25:19;3.40;;;3.10;;
2029;SDS011;1020;48.854;8.830;2022-08-21T01:27:46;3.67;;;3.00;;
2029;SDS011;1020;48.854;8.830;2022-08-21T01:30:14;2.80;;;2.60;;
2029;SDS011;1020;48.854;8.830;2022-08-21T01:32:44;3.40;;;3.10;;
2029;SDS011;1020;48.854;8.830;2022-08-21T01:35:13;3.23;;;2.93;;
2029;SDS011;1020;48.854;8.830;2022-08-21T01:37:42;3.33;;;3.03;;
2029;SDS011;1020;48.854;8.830;2022-08-21T01:40:12;5.53;;;3.10;;
2029;SDS011;1020;48.854;8.830;2022-08-21T01:42:41;3.30;;;3.00;;
2029;SDS011;1020;48.854;8.830;2022-08-21T01:45:09;4.13;;;3.20;;
2029;SDS011;1020;48.854;8.830;2022-08-21T01:47:37;4.90;;;3.10;;
2029;SDS011;1020;48.854;8.830;2022-08-21T01:50:04;4.60;;;3.73;;
2029;SDS011;1020;48.854;8.830;2022-08-21T01:52:35;2.73;;;2.57;;
2029;SDS011;1020;48.854;8.830;2022-08-21T01:55:02;3.23;;;2.93;;
2029;SDS011;1020;48.854;8.830;2022-08-21T01:57:31;5.07;;;3.27;;
2029;SDS011;1020;48.854;8.830;2022-08-21T01:59:59;4.23;;;3.10;;
2029;SDS011;1020;48.854;8.830;2022-08-21T02:02:26;3.30;;;3.00;;
2029;SDS011;1020;48.854;8.830;2022-08-21T02:04:53;3.50;;;3.17;;
2029;SDS011;1020;48.854;8.830;2022-08-21T02:07:19;4.23;;;3.30;;
2029;SDS011;1020;48.854;8.830;2022-08-21T02:09:46;3.50;;;2.83;;
2029;SDS011;1020;48.854;8.830;2022-08-21T02:12:13;3.63;;;3.33;;
2029;SDS011;1020;48.854;8.830;2022-08-21T02:14:41;3.50;;;3.20;;
2029;SDS011;1020;48.854;8.830;2022-08-21T02:17:08;3.77;;;2.77;;
2029;SDS011;1020;48.854;8.830;2022-08-21T02:19:35;4.13;;;2.70;;
2029;SDS011;1020;48.854;8.830;2022-08-21T02:22:02;5.17;;;3.07;;
2029;SDS011;1020;48.854;8.830;2022-08-21T02:24:29;2.80;;;2.60;;
2029;SDS011;1020;48.854;8.830;2022-08-21T02:26:57;3.93;;;3.63;;
2029;SDS011;1020;48.854;8.830;2022-08-21T02:29:23;3.73;;;3.37;;
2029;SDS011;1020;48.854;8.830;2022-08-21T02:31:51;3.90;;;3.27;;
2029;SDS011;1020;48.854;8.830;2022-08-21T02:34:18;3.17;;;2.90;;
2029;SDS011;1020;48.854;8.830;2022-08-21T02:36:46;4.10;;;3.70;;
2029;SDS011;1020;48.854;8.830;2022-08-21T02:39:12;3.13;;;2.93;;
2029;SDS011;1020;48.854;8.830;2022-08-21T02:41:39;4.43;;;3.43;;
2029;SDS011;1020;48.854;8.830;2022-08-21T02:44:06;3.90;;;3.30;;
2029;SDS011;1020;48.854;8.830;2022-08-21T02:46:33;3.40;;;3.10;;
2029;SDS011;1020;48.854;8.830;2022-08-21T02:49:01;3.30;;;3.00;;
2029;SDS011;1020;48.854;8.830;2022-08-21T02:51:28;3.83;;;3.23;;
2029;SDS011;1020;48.854;8.830;2022-08-21T02:53:56;3.67;;;3.37;;
2029;SDS011;1020;48.854;8.830;2022-08-21T02:56:22;3.43;;;3.17;;
2029;SDS011;1020;48.854;8.830;2022-08-21T02:58:50;3.40;;;3.10;;
2029;SDS011;1020;48.854;8.830;2022-08-21T03:01:18;3.70;;;3.43;;
2029;SDS011;1020;48.854;8.830;2022-08-21T03:03:45;3.73;;;3.43;;
2029;SDS011;1020;48.854;8.830;2022-08-21T03:06:17;5.13;;;3.57;;
2029;SDS011;1020;48.854;8.830;2022-08-21T03:08:45;3.77;;;3.20;;
2029;SDS011;1020;48.854;8.830;2022-08-21T03:11:12;3.50;;;3.17;;
2029;SDS011;1020;48.854;8.830;2022-08-21T03:13:40;3.40;;;3.20;;
2029;SDS011;1020;48.854;8.830;2022-08-21T03:16:07;4.23;;;3.43;;
2029;SDS011;1020;48.854;8.830;2022-08-21T03:18:34;3.87;;;3.57;;
2029;SDS011;1020;48.854;8.830;2022-08-21T03:21:01;3.70;;;3.40;;
2029;SDS011;1020;48.854;8.830;2022-08-21T03:23:30;4.13;;;3.73;;
2029;SDS011;1020;48.854;8.830;2022-08-21T03:25:57;4.10;;;3.43;;
2029;SDS011;1020;48.854;8.830;2022-08-21T03:28:24;3.83;;;3.43;;
2029;SDS011;1020;48.854;8.830;2022-08-21T03:30:51;4.90;;;3.60;;
2029;SDS011;1020;48.854;8.830;2022-08-21T03:33:19;4.57;;;3.60;;
2029;SDS011;1020;48.854;8.830;2022-08-21T03:35:47;4.50;;;3.73;;
2029;SDS011;1020;48.854;8.830;2022-08-21T03:38:18;3.67;;;3.37;;
2029;SDS011;1020;48.854;8.830;2022-08-21T03:40:46;3.50;;;3.17;;
2029;SDS011;1020;48.854;8.830;2022-08-21T03:43:13;4.47;;;4.13;;
2029;SDS011;1020;48.854;8.830;2022-08-21T03:45:39;5.63;;;3.70;;
2029;SDS011;1020;48.854;8.830;2022-08-21T03:48:07;11.13;;;4.07;;
2029;SDS011;1020;48.854;8.830;2022-08-21T03:50:35;4.27;;;3.90;;
2029;SDS011;1020;48.854;8.830;2022-08-21T03:53:04;4.10;;;3.80;;
2029;SDS011;1020;48.854;8.830;2022-08-21T03:55:31;4.53;;;4.13;;
2029;SDS011;1020;48.854;8.830;2022-08-21T03:57:59;6.87;;;3.80;;
2029;SDS011;1020;48.854;8.830;2022-08-21T04:00:26;4.50;;;3.53;;
2029;SDS011;1020;48.854;8.830;2022-08-21T04:02:53;4.13;;;3.60;;
2029;SDS011;1020;48.854;8.830;2022-08-21T04:05:20;5.37;;;3.97;;
2029;SDS011;1020;48.854;8.830;2022-08-21T04:07:53;7.57;;;4.50;;
2029;SDS011;1020;48.854;8.830;2022-08-21T04:10:21;5.67;;;4.47;;
2029;SDS011;1020;48.854;8.830;2022-08-21T04:12:49;3.63;;;3.33;;
2029;SDS011;1020;48.854;8.830;2022-08-21T04:15:18;4.23;;;3.70;;
2029;SDS011;1020;48.854;8.830;2022-08-21T04:17:46;6.33;;;4.07;;
2029;SDS011;1020;48.854;8.830;2022-08-21T04:20:13;4.10;;;3.67;;
2029;SDS011;1020;48.854;8.830;2022-08-21T04:22:40;4.13;;;3.80;;
2029;SDS011;1020;48.854;8.830;2022-08-21T04:25:07;4.97;;;4.47;;
2029;SDS011;1020;48.854;8.830;2022-08-21T04:27:34;3.73;;;3.43;;
2029;SDS011;1020;48.854;8.830;2022-08-21T04:30:01;5.20;;;4.40;;
2029;SDS011;1020;48.854;8.830;2022-08-21T04:32:30;3.90;;;3.60;;
2029;SDS011;1020;48.854;8.830;2022-08-21T04:34:58;4.83;;;4.43;;
2029;SDS011;1020;48.854;8.830;2022-08-21T04:37:29;4.20;;;3.90;;
2029;SDS011;1020;48.854;8.830;2022-08-21T04:39:56;4.20;;;3.90;;
2029;SDS011;1020;48.854;8.830;2022-08-21T04:42:23;5.13;;;4.17;;
2029;SDS011;1020;48.854;8.830;2022-08-21T04:44:51;4.33;;;3.93;;
2029;SDS011;1020;48.854;8.830;2022-08-21T04:47:18;3.73;;;3.43;;
2029;SDS011;1020;48.854;8.830;2022-08-21T04:49:46;4.07;;;3.73;;
2029;SDS011;1020;48.854;8.830;2022-08-21T04:52:13;5.70;;;4.40;;
2029;SDS011;1020;48.854;8.830;2022-08-21T04:54:43;5.63;;;4.27;;
2029;SDS011;1020;48.854;8.830;2022-08-21T04:57:11;4.20;;;3.50;;
2029;SDS011;1020;48.854;8.830;2022-08-21T04:59:42;4.77;;;4.00;;
2029;SDS011;1020;48.854;8.830;2022-08-21T05:02:11;4.10;;;3.80;;
2029;SDS011;1020;48.854;8.830;2022-08-21T05:04:41;4.77;;;4.37;;
2029;SDS011;1020;48.854;8.830;2022-08-21T05:07:14;5.00;;;4.33;;
2029;SDS011;1020;48.854;8.830;2022-08-21T05:09:43;4.17;;;3.87;;
2029;SDS011;1020;48.854;8.830;2022-08-21T05:12:10;5.20;;;3.77;;
2029;SDS011;1020;48.854;8.830;2022-08-21T05:14:37;3.70;;;3.40;;
2029;SDS011;1020;48.854;8.830;2022-08-21T05:17:04;6.97;;;4.60;;
2029;SDS011;1020;48.854;8.830;2022-08-21T05:19:31;11.33;;;4.97;;
2029;SDS011;1020;48.854;8.830;2022-08-21T05:21:58;4.77;;;4.37;;
2029;SDS011;1020;48.854;8.830;2022-08-21T05:24:27;3.70;;;3.40;;
2029;SDS011;1020;48.854;8.830;2022-08-21T05:26:54;4.83;;;4.43;;
2029;SDS011;1020;48.854;8.830;2022-08-21T05:29:21;4.90;;;4.10;;
2029;SDS011;1020;48.854;8.830;2022-08-21T05:31:47;4.77;;;4.37;;
2029;SDS011;1020;48.854;8.830;2022-08-21T05:34:17;4.97;;;4.47;;
2029;SDS011;1020;48.854;8.830;2022-08-21T05:36:46;4.73;;;4.30;;
2029;SDS011;1020;48.854;8.830;2022-08-21T05:39:13;4.40;;;4.00;;
2029;SDS011;1020;48.854;8.830;2022-08-21T05:41:41;6.63;;;4.40;;
2029;SDS011;1020;48.854;8.830;2022-08-21T05:44:08;4.43;;;4.03;;
2029;SDS011;1020;48.854;8.830;2022-08-21T05:46:35;4.27;;;3.67;;
2029;SDS011;1020;48.854;8.830;2022-08-21T05:49:02;4.90;;;3.90;;
2029;SDS011;1020;48.854;8.830;2022-08-21T05:51:28;5.73;;;3.60;;
2029;SDS011;1020;48.854;8.830;2022-08-21T05:53:56;4.57;;;4.27;;
2029;SDS011;1020;48.854;8.830;2022-08-21T05:56:23;4.20;;;3.73;;
2029;SDS011;1020;48.854;8.830;2022-08-21T05:58:51;5.17;;;4.27;;
2029;SDS011;1020;48.854;8.830;2022-08-21T06:01:17;4.03;;;3.60;;
2029;SDS011;1020;48.854;8.830;2022-08-21T06:03:44;4.43;;;4.07;;
2029;SDS011;1020;48.854;8.830;2022-08-21T06:06:11;3.67;;;3.30;;
2029;SDS011;1020;48.854;8.830;2022-08-21T06:08:38;4.80;;;4.23;;
2029;SDS011;1020;48.854;8.830;2022-08-21T06:11:05;6.40;;;4.20;;
2029;SDS011;1020;48.854;8.830;2022-08-21T06:13:33;4.60;;;4.20;;
2029;SDS011;1020;48.854;8.830;2022-08-21T06:16:02;4.17;;;3.77;;
2029;SDS011;1020;48.854;8.830;2022-08-21T06:18:32;3.97;;;3.67;;
2029;SDS011;1020;48.854;8.830;2022-08-21T06:20:59;3.97;;;3.67;;
2029;SDS011;1020;48.854;8.830;2022-08-21T06:23:25;4.53;;;4.13;;
2029;SDS011;1020;48.854;8.830;2022-08-21T06:25:52;9.70;;;7.47;;
2029;SDS011;1020;48.854;8.830;2022-08-21T06:28:19;7.27;;;6.57;;
2029;SDS011;1020;48.854;8.830;2022-08-21T06:30:46;5.20;;;4.80;;
2029;SDS011;1020;48.854;8.830;2022-08-21T06:33:14;4.83;;;4.10;;
2029;SDS011;1020;48.854;8.830;2022-08-21T06:35:41;3.90;;;3.60;;
2029;SDS011;1020;48.854;8.830;2022-08-21T06:38:08;4.60;;;4.17;;
2029;SDS011;1020;48.854;8.830;2022-08-21T06:40:35;5.07;;;3.90;;
2029;SDS011;1020;48.854;8.830;2022-08-21T06:43:05;3.90;;;3.47;;
2029;SDS011;1020;48.854;8.830;2022-08-21T06:45:34;4.10;;;3.40;;
2029;SDS011;1020;48.854;8.830;2022-08-21T06:48:01;7.43;;;3.90;;
2029;SDS011;1020;48.854;8.830;2022-08-21T06:50:30;3.60;;;3.30;;
2029;SDS011;1020;48.854;8.830;2022-08-21T06:53:01;3.77;;;3.47;;
2029;SDS011;1020;48.854;8.830;2022-08-21T06:55:29;4.40;;;4.00;;
2029;SDS011;1020;48.854;8.830;2022-08-21T06:57:56;3.57;;;3.20;;
2029;SDS011;1020;48.854;8.830;2022-08-21T07:00:23;4.47;;;4.07;;
2029;SDS011;1020;48.854;8.830;2022-08-21T07:02:50;4.10;;;3.80;;
2029;SDS011;1020;48.854;8.830;2022-08-21T07:05:17;4.47;;;3.93;;
2029;SDS011;1020;48.854;8.830;2022-08-21T07:07:46;5.37;;;3.73;;
2029;SDS011;1020;48.854;8.830;2022-08-21T07:10:13;4.00;;;3.60;;
2029;SDS011;1020;48.854;8.830;2022-08-21T07:12:41;5.07;;;3.50;;
2029;SDS011;1020;48.854;8.830;2022-08-21T07:15:08;4.50;;;3.97;;
2029;SDS011;1020;48.854;8.830;2022-08-21T07:17:36;5.00;;;3.30;;
2029;SDS011;1020;48.854;8.830;2022-08-21T07:20:03;5.93;;;3.87;;
2029;SDS011;1020;48.854;8.830;2022-08-21T07:22:31;4.87;;;3.33;;
2029;SDS011;1020;48.854;8.830;2022-08-21T07:24:59;3.27;;;2.97;;
2029;SDS011;1020;48.854;8.830;2022-08-21T07:27:26;6.77;;;3.10;;
2029;SDS011;1020;48.854;8.830;2022-08-21T07:29:52;3.80;;;2.93;;
2029;SDS011;1020;48.854;8.830;2022-08-21T07:32:19;4.27;;;3.03;;
2029;SDS011;1020;48.854;8.830;2022-08-21T07:34:46;3.20;;;2.90;;
2029;SDS011;1020;48.854;8.830;2022-08-21T07:37:13;3.13;;;2.80;;
2029;SDS011;1020;48.854;8.830;2022-08-21T07:39:40;3.60;;;2.70;;
2029;SDS011;1020;48.854;8.830;2022-08-21T07:42:08;3.50;;;3.13;;
2029;SDS011;1020;48.854;8.830;2022-08-21T07:44:35;7.23;;;2.90;;
2029;SDS011;1020;48.854;8.830;2022-08-21T07:47:02;2.80;;;2.60;;
2029;SDS011;1020;48.854;8.830;2022-08-21T07:49:28;3.37;;;2.33;;
2029;SDS011;1020;48.854;8.830;2022-08-21T07:51:55;3.60;;;2.90;;
2029;SDS011;1020;48.854;8.830;2022-08-21T07:54:22;3.30;;;2.00;;
2029;SDS011;1020;48.854;8.830;2022-08-21T07:56:49;4.03;;;2.70;;
2029;SDS011;1020;48.854;8.830;2022-08-21T07:59:18;3.10;;;2.53;;
2029;SDS011;1020;48.854;8.830;2022-08-21T08:01:45;4.67;;;2.80;;
2029;SDS011;1020;48.854;8.830;2022-08-21T08:04:11;3.00;;;2.70;;
2029;SDS011;1020;48.854;8.830;2022-08-21T08:06:39;3.00;;;2.70;;
2029;SDS011;1020;48.854;8.830;2022-08-21T08:09:06;2.37;;;2.17;;
2029;SDS011;1020;48.854;8.830;2022-08-21T08:11:33;3.47;;;2.80;;
2029;SDS011;1020;48.854;8.830;2022-08-21T08:14:01;2.70;;;2.50;;
2029;SDS011;1020;48.854;8.830;2022-08-21T08:16:30;3.63;;;2.60;;
2029;SDS011;1020;48.854;8.830;2022-08-21T08:18:56;3.00;;;2.70;;
2029;SDS011;1020;48.854;8.830;2022-08-21T08:21:23;3.13;;;2.47;;
2029;SDS011;1020;48.854;8.830;2022-08-21T08:23:50;3.60;;;2.60;;
2029;SDS011;1020;48.854;8.830;2022-08-21T08:26:17;3.80;;;3.00;;
2029;SDS011;1020;48.854;8.830;2022-08-21T08:28:43;2.40;;;2.20;;
2029;SDS011;1020;48.854;8.830;2022-08-21T08:31:11;8.00;;;4.03;;
2029;SDS011;1020;48.854;8.830;2022-08-21T08:33:39;4.00;;;2.80;;
2029;SDS011;1020;48.854;8.830;2022-08-21T08:36:11;2.77;;;2.57;;
2029;SDS011;1020;48.854;8.830;2022-08-21T08:38:39;2.87;;;2.57;;
2029;SDS011;1020;48.854;8.830;2022-08-21T08:41:09;3.40;;;3.10;;
2029;SDS011;1020;48.854;8.830;2022-08-21T08:43:38;2.90;;;2.60;;
2029;SDS011;1020;48.854;8.830;2022-08-21T08:46:09;3.97;;;3.30;;
2029;SDS011;1020;48.854;8.830;2022-08-21T08:48:43;4.87;;;3.10;;
2029;SDS011;1020;48.854;8.830;2022-08-21T08:51:16;4.03;;;3.20;;
2029;SDS011;1020;48.854;8.830;2022-08-21T08:53:49;5.37;;;2.97;;
2029;SDS011;1020;48.854;8.830;2022-08-21T08:56:19;3.40;;;3.07;;
2029;SDS011;1020;48.854;8.830;2022-08-21T08:58:52;3.37;;;3.07;;
2029;SDS011;1020;48.854;8.830;2022-08-21T09:01:20;4.60;;;3.17;;
2029;SDS011;1020;48.854;8.830;2022-08-21T09:03:48;3.23;;;2.90;;
2029;SDS011;1020;48.854;8.830;2022-08-21T09:06:19;3.47;;;2.40;;
2029;SDS011;1020;48.854;8.830;2022-08-21T09:08:58;5.03;;;3.37;;
2029;SDS011;1020;48.854;8.830;2022-08-21T09:11:37;4.53;;;2.60;;
2029;SDS011;1020;48.854;8.830;2022-08-21T09:14:13;2.90;;;2.70;;
2029;SDS011;1020;48.854;8.830;2022-08-21T09:16:50;3.07;;;2.77;;
2029;SDS011;1020;48.854;8.830;2022-08-21T09:19:26;3.90;;;2.67;;
2029;SDS011;1020;48.854;8.830;2022-08-21T09:22:03;2.67;;;2.47;;
2029;SDS011;1020;48.854;8.830;2022-08-21T09:24:46;4.40;;;3.00;;
2029;SDS011;1020;48.854;8.830;2022-08-21T09:27:18;4.97;;;3.10;;
2029;SDS011;1020;48.854;8.830;2022-08-21T09:29:47;4.23;;;2.67;;
2029;SDS011;1020;48.854;8.830;2022-08-21T09:32:18;2.90;;;2.37;;
2029;SDS011;1020;48.854;8.830;2022-08-21T09:34:58;3.90;;;2.97;;
2029;SDS011;1020;48.854;8.830;2022-08-21T09:37:26;3.30;;;2.30;;
2029;SDS011;1020;48.854;8.830;2022-08-21T09:39:54;3.10;;;2.40;;
2029;SDS011;1020;48.854;8.830;2022-08-21T09:42:23;3.27;;;2.40;;
2029;SDS011;1020;48.854;8.830;2022-08-21T09:45:04;3.40;;;3.10;;
2029;SDS011;1020;48.854;8.830;2022-08-21T09:47:36;3.90;;;2.80;;
2029;SDS011;1020;48.854;8.830;2022-08-21T09:50:12;2.80;;;2.23;;
2029;SDS011;1020;48.854;8.830;2022-08-21T09:52:46;3.07;;;2.77;;
2029;SDS011;1020;48.854;8.830;2022-08-21T09:55:16;3.73;;;2.53;;
2029;SDS011;1020;48.854;8.830;2022-08-21T09:58:06;5.10;;;2.47;;
2029;SDS011;1020;48.854;8.830;2022-08-21T10:00:34;3.07;;;2.70;;
2029;SDS011;1020;48.854;8.830;2022-08-21T10:03:11;2.30;;;2.10;;
2029;SDS011;1020;48.854;8.830;2022-08-21T10:05:51;2.73;;;2.50;;
2029;SDS011;1020;48.854;8.830;2022-08-21T10:08:21;3.10;;;2.63;;
2029;SDS011;1020;48.854;8.830;2022-08-21T10:10:51;3.20;;;2.70;;
2029;SDS011;1020;48.854;8.830;2022-08-21T10:13:21;2.90;;;2.70;;
2029;SDS011;1020;48.854;8.830;2022-08-21T10:16:06;2.50;;;2.30;;
2029;SDS011;1020;48.854;8.830;2022-08-21T10:18:48;2.20;;;2.00;;
2029;SDS011;1020;48.854;8.830;2022-08-21T10:21:30;4.17;;;2.80;;
2029;SDS011;1020;48.854;8.830;2022-08-21T10:24:05;2.60;;;2.40;;
2029;SDS011;1020;48.854;8.830;2022-08-21T10:26:42;3.73;;;2.93;;
2029;SDS011;1020;48.854;8.830;2022-08-21T10:29:21;4.47;;;2.70;;
2029;SDS011;1020;48.854;8.830;2022-08-21T10:32:02;2.77;;;2.57;;
2029;SDS011;1020;48.854;8.830;2022-08-21T10:34:40;2.60;;;2.40;;
2029;SDS011;1020;48.854;8.830;2022-08-21T10:37:18;3.83;;;2.83;;
2029;SDS011;1020;48.854;8.830;2022-08-21T10:39:55;5.80;;;3.30;;
2029;SDS011;1020;48.854;8.830;2022-08-21T10:42:33;5.00;;;3.13;;
2029;SDS011;1020;48.854;8.830;2022-08-21T10:45:09;3.57;;;2.50;;
2029;SDS011;1020;48.854;8.830;2022-08-21T10:47:42;3.50;;;3.13;;
2029;SDS011;1020;48.854;8.830;2022-08-21T10:50:15;3.67;;;2.60;;
2029;SDS011;1020;48.854;8.830;2022-08-21T10:53:05;2.63;;;2.43;;
2029;SDS011;1020;48.854;8.830;2022-08-21T10:55:48;4.43;;;3.00;;
2029;SDS011;1020;48.854;8.830;2022-08-21T10:58:23;2.60;;;2.43;;
2029;SDS011;1020;48.854;8.830;2022-08-21T11:00:56;3.47;;;2.87;;
2029;SDS011;1020;48.854;8.830;2022-08-21T11:03:31;4.50;;;2.67;;
2029;SDS011;1020;48.854;8.830;2022-08-21T11:06:02;2.43;;;2.20;;
2029;SDS011;1020;48.854;8.830;2022-08-21T11:08:37;3.10;;;2.67;;
2029;SDS011;1020;48.854;8.830;2022-08-21T11:11:08;2.97;;;2.67;;
2029;SDS011;1020;48.854;8.830;2022-08-21T11:13:39;3.00;;;2.50;;
2029;SDS011;1020;48.854;8.830;2022-08-21T11:16:10;4.27;;;2.83;;
2029;SDS011;1020;48.854;8.830;2022-08-21T11:18:45;3.00;;;2.50;;
2029;SDS011;1020;48.854;8.830;2022-08-21T11:21:24;3.97;;;2.70;;
2029;SDS011;1020;48.854;8.830;2022-08-21T11:23:59;2.40;;;2.20;;
2029;SDS011;1020;48.854;8.830;2022-08-21T11:26:34;4.27;;;2.87;;
2029;SDS011;1020;48.854;8.830;2022-08-21T11:29:08;3.67;;;2.27;;
2029;SDS011;1020;48.854;8.830;2022-08-21T11:31:44;2.53;;;2.33;;
2029;SDS011;1020;48.854;8.830;2022-08-21T11:34:23;4.10;;;2.53;;
2029;SDS011;1020;48.854;8.830;2022-08-21T11:37:06;2.77;;;2.50;;
2029;SDS011;1020;48.854;8.830;2022-08-21T11:39:46;2.93;;;2.73;;
2029;SDS011;1020;48.854;8.830;2022-08-21T11:42:23;2.70;;;2.50;;
2029;SDS011;1020;48.854;8.830;2022-08-21T11:44:56;3.30;;;2.60;;
2029;SDS011;1020;48.854;8.830;2022-08-21T11:47:38;2.80;;;2.60;;
2029;SDS011;1020;48.854;8.830;2022-08-21T11:50:16;2.33;;;2.13;;
2029;SDS011;1020;48.854;8.830;2022-08-21T11:52:47;2.70;;;2.43;;
2029;SDS011;1020;48.854;8.830;2022-08-21T11:55:22;2.60;;;2.33;;
2029;SDS011;1020;48.854;8.830;2022-08-21T11:57:54;2.80;;;2.30;;
2029;SDS011;1020;48.854;8.830;2022-08-21T12:00:25;7.10;;;3.03;;
2029;SDS011;1020;48.854;8.830;2022-08-21T12:02:58;2.73;;;2.37;;
2029;SDS011;1020;48.854;8.830;2022-08-21T12:05:33;2.30;;;2.10;;
2029;SDS011;1020;48.854;8.830;2022-08-21T12:08:05;3.37;;;2.57;;
2029;SDS011;1020;48.854;8.830;2022-08-21T12:10:38;2.87;;;2.57;;
2029;SDS011;1020;48.854;8.830;2022-08-21T12:13:07;2.47;;;2.23;;
2029;SDS011;1020;48.854;8.830;2022-08-21T12:15:38;3.63;;;2.50;;
2029;SDS011;1020;48.854;8.830;2022-08-21T12:18:06;3.43;;;2.80;;
2029;SDS011;1020;48.854;8.830;2022-08-21T12:20:56;3.83;;;2.50;;
2029;SDS011;1020;48.854;8.830;2022-08-21T12:23:26;3.20;;;2.70;;
2029;SDS011;1020;48.854;8.830;2022-08-21T12:26:09;3.50;;;2.60;;
2029;SDS011;1020;48.854;8.830;2022-08-21T12:28:43;2.93;;;2.67;;
2029;SDS011;1020;48.854;8.830;2022-08-21T12:31:17;2.70;;;2.17;;
2029;SDS011;1020;48.854;8.830;2022-08-21T12:33:49;2.73;;;2.40;;
2029;SDS011;1020;48.854;8.830;2022-08-21T12:36:20;2.57;;;2.37;;
2029;SDS011;1020;48.854;8.830;2022-08-21T12:38:51;4.70;;;2.40;;
2029;SDS011;1020;48.854;8.830;2022-08-21T12:41:24;3.87;;;2.30;;
2029;SDS011;1020;48.854;8.830;2022-08-21T12:43:56;3.70;;;2.80;;
2029;SDS011;1020;48.854;8.830;2022-08-21T12:46:26;2.13;;;2.03;;
2029;SDS011;1020;48.854;8.830;2022-08-21T12:48:58;2.13;;;2.00;;
2029;SDS011;1020;48.854;8.830;2022-08-21T12:51:31;3.23;;;2.30;;
2029;SDS011;1020;48.854;8.830;2022-08-21T12:54:02;2.50;;;2.30;;
2029;SDS011;1020;48.854;8.830;2022-08-21T12:56:33;2.50;;;2.30;;
2029;SDS011;1020;48.854;8.830;2022-08-21T12:59:02;3.63;;;2.37;;
2029;SDS011;1020;48.854;8.830;2022-08-21T13:01:32;1.87;;;1.73;;
2029;SDS011;1020;48.854;8.830;2022-08-21T13:04:03;4.57;;;2.17;;
2029;SDS011;1020;48.854;8.830;2022-08-21T13:06:37;1.83;;;1.73;;
2029;SDS011;1020;48.854;8.830;2022-08-21T13:09:06;2.67;;;2.30;;
2029;SDS011;1020;48.854;8.830;2022-08-21T13:11:38;2.27;;;2.07;;
2029;SDS011;1020;48.854;8.830;2022-08-21T13:14:06;2.40;;;2.20;;
2029;SDS011;1020;48.854;8.830;2022-08-21T13:16:43;3.20;;;2.60;;
2029;SDS011;1020;48.854;8.830;2022-08-21T13:19:11;3.30;;;2.30;;
2029;SDS011;1020;48.854;8.830;2022-08-21T13:21:43;2.83;;;2.57;;
2029;SDS011;1020;48.854;8.830;2022-08-21T13:24:13;3.97;;;2.57;;
2029;SDS011;1020;48.854;8.830;2022-08-21T13:26:44;2.77;;;2.50;;
2029;SDS011;1020;48.854;8.830;2022-08-21T13:29:12;3.80;;;2.43;;
2029;SDS011;1020;48.854;8.830;2022-08-21T13:31:42;2.40;;;2.20;;
2029;SDS011;1020;48.854;8.830;2022-08-21T13:34:14;2.50;;;2.30;;
2029;SDS011;1020;48.854;8.830;2022-08-21T13:36:42;2.23;;;2.03;;
2029;SDS011;1020;48.854;8.830;2022-08-21T13:39:12;2.60;;;2.23;;
2029;SDS011;1020;48.854;8.830;2022-08-21T13:41:45;3.83;;;2.63;;
2029;SDS011;1020;48.854;8.830;2022-08-21T13:44:15;3.03;;;2.70;;
2029;SDS011;1020;48.854;8.830;2022-08-21T13:46:45;2.50;;;2.20;;
2029;SDS011;1020;48.854;8.830;2022-08-21T13:49:13;3.80;;;2.90;;
2029;SDS011;1020;48.854;8.830;2022-08-21T13:51:43;3.00;;;2.60;;
2029;SDS011;1020;48.854;8.830;2022-08-21T13:54:21;2.60;;;2.40;;
2029;SDS011;1020;48.854;8.830;2022-08-21T13:56:52;2.70;;;2.50;;
2029;SDS011;1020;48.854;8.830;2022-08-21T13:59:24;2.50;;;2.30;;
2029;SDS011;1020;48.854;8.830;2022-08-21T14:01:53;5.33;;;3.20;;
2029;SDS011;1020;48.854;8.830;2022-08-21T14:04:26;2.60;;;2.40;;
2029;SDS011;1020;48.854;8.830;2022-08-21T14:06:58;3.33;;;2.53;;
2029;SDS011;1020;48.854;8.830;2022-08-21T14:09:26;2.77;;;2.57;;
2029;SDS011;1020;48.854;8.830;2022-08-21T14:11:58;2.73;;;2.53;;
2029;SDS011;1020;48.854;8.830;2022-08-21T14:14:30;2.53;;;2.07;;
2029;SDS011;1020;48.854;8.830;2022-08-21T14:17:02;3.03;;;2.53;;
2029;SDS011;1020;48.854;8.830;2022-08-21T14:19:36;2.40;;;2.20;;
2029;SDS011;1020;48.854;8.830;2022-08-21T14:22:23;3.00;;;2.47;;
2029;SDS011;1020;48.854;8.830;2022-08-21T14:25:00;2.67;;;2.30;;
2029;SDS011;1020;48.854;8.830;2022-08-21T14:27:31;2.93;;;2.30;;
2029;SDS011;1020;48.854;8.830;2022-08-21T14:29:59;3.27;;;2.90;;
2029;SDS011;1020;48.854;8.830;2022-08-21T14:32:30;2.57;;;2.30;;
2029;SDS011;1020;48.854;8.830;2022-08-21T14:35:03;3.00;;;2.40;;
2029;SDS011;1020;48.854;8.830;2022-08-21T14:37:31;3.77;;;2.70;;
2029;SDS011;1020;48.854;8.830;2022-08-21T14:39:57;2.20;;;2.10;;
2029;SDS011;1020;48.854;8.830;2022-08-21T14:42:24;3.03;;;2.60;;
2029;SDS011;1020;48.854;8.830;2022-08-21T14:44:53;3.00;;;2.37;;
2029;SDS011;1020;48.854;8.830;2022-08-21T14:47:23;2.17;;;1.97;;
2029;SDS011;1020;48.854;8.830;2022-08-21T14:49:49;2.63;;;2.43;;
2029;SDS011;1020;48.854;8.830;2022-08-21T14:52:18;2.30;;;2.10;;
2029;SDS011;1020;48.854;8.830;2022-08-21T14:54:45;2.23;;;2.13;;
2029;SDS011;1020;48.854;8.830;2022-08-21T14:57:12;4.50;;;2.30;;
2029;SDS011;1020;48.854;8.830;2022-08-21T14:59:39;2.53;;;2.33;;
2029;SDS011;1020;48.854;8.830;2022-08-21T15:02:08;4.53;;;2.90;;
2029;SDS011;1020;48.854;8.830;2022-08-21T15:04:35;2.90;;;2.70;;
2029;SDS011;1020;48.854;8.830;2022-08-21T15:07:02;4.10;;;2.30;;
2029;SDS011;1020;48.854;8.830;2022-08-21T15:09:29;2.30;;;2.10;;
2029;SDS011;1020;48.854;8.830;2022-08-21T15:11:57;2.17;;;2.00;;
2029;SDS011;1020;48.854;8.830;2022-08-21T15:14:26;2.77;;;2.23;;
2029;SDS011;1020;48.854;8.830;2022-08-21T15:16:54;2.60;;;2.40;;
2029;SDS011;1020;48.854;8.830;2022-08-21T15:19:23;2.50;;;2.30;;
2029;SDS011;1020;48.854;8.830;2022-08-21T15:21:50;2.50;;;2.30;;
2029;SDS011;1020;48.854;8.830;2022-08-21T15:24:17;2.43;;;2.20;;
2029;SDS011;1020;48.854;8.830;2022-08-21T15:26:44;3.10;;;2.67;;
2029;SDS011;1020;48.854;8.830;2022-08-21T15:29:12;3.47;;;2.30;;
2029;SDS011;1020;48.854;8.830;2022-08-21T15:31:49;4.30;;;2.67;;